createdAt,value
2019-04-06T00:00:20.053Z,26.87
2019-04-06T00:02:49.059Z,42.80
2019-04-06T00:05:17.803Z,24.97
2019-04-06T00:07:46.479Z,42.60
2019-04-06T00:10:15.141Z,49.27
2019-04-06T00:12:47.111Z,17.85
2019-04-06T00:15:15.789Z,45.45
2019-04-06T00:17:44.468Z,44.27
2019-04-06T00:20:13.224Z,46.42
2019-04-06T00:22:41.874Z,47.97
2019-04-06T00:25:10.920Z,43.15
2019-04-06T00:27:39.565Z,42.83
2019-04-06T00:30:10.599Z,18.20
2019-04-06T00:32:53.018Z,46.73
2019-04-06T00:35:21.669Z,43.60
2019-04-06T00:37:50.308Z,42.17
2019-04-06T00:40:18.975Z,47.53
2019-04-06T00:42:47.637Z,43.83
2019-04-06T00:45:16.620Z,48.58
2019-04-06T00:47:45.397Z,47.73
2019-04-06T00:50:13.996Z,46.67
2019-04-06T00:52:42.659Z,45.00
2019-04-06T00:55:11.327Z,45.30
2019-04-06T00:57:39.972Z,49.48
2019-04-06T01:00:08.791Z,46.05
2019-04-06T01:02:37.551Z,39.00
2019-04-06T01:05:06.442Z,40.92
2019-04-06T01:07:36.356Z,38.48
2019-04-06T01:10:06.096Z,48.70
2019-04-06T01:12:34.816Z,46.63
2019-04-06T01:15:03.747Z,43.38
2019-04-06T01:17:33.472Z,47.03
2019-04-06T01:20:02.163Z,40.15
2019-04-06T01:22:30.968Z,48.73
2019-04-06T01:24:59.720Z,42.08
2019-04-06T01:27:28.461Z,38.08
2019-04-06T01:29:57.892Z,44.42
2019-04-06T01:32:26.587Z,36.90
2019-04-06T01:34:55.506Z,47.75
2019-04-06T01:37:24.139Z,24.97
2019-04-06T01:39:52.894Z,49.27
2019-04-06T01:42:21.549Z,47.77
2019-04-06T01:47:32.680Z,48.15
2019-04-06T01:50:01.530Z,35.38
2019-04-06T01:52:30.445Z,40.28
2019-04-06T01:54:59.370Z,51.42
2019-04-06T01:57:28.072Z,43.75
2019-04-06T01:59:56.760Z,49.77
2019-04-06T02:02:28.844Z,49.53
2019-04-06T02:04:58.248Z,43.25
2019-04-06T02:07:26.994Z,31.40
2019-04-06T02:09:55.645Z,47.70
2019-04-06T02:12:24.426Z,46.45
2019-04-06T02:14:53.079Z,39.07
2019-04-06T02:17:21.706Z,12.30
2019-04-06T02:19:50.338Z,46.25
2019-04-06T02:22:18.979Z,54.07
2019-04-06T02:24:47.660Z,51.30
2019-04-06T02:27:16.228Z,48.68
2019-04-06T02:29:44.947Z,46.18
2019-04-06T02:32:28.668Z,47.50
2019-04-06T02:35:15.364Z,45.35
2019-04-06T02:38:00.696Z,26.80
2019-04-06T02:40:35.735Z,35.85
2019-04-06T02:43:22.135Z,39.45
2019-04-06T02:45:50.760Z,46.17
2019-04-06T02:48:19.412Z,47.35
2019-04-06T02:50:48.055Z,55.12
2019-04-06T02:53:16.688Z,33.23
2019-04-06T02:55:45.339Z,49.00
2019-04-06T02:58:13.966Z,43.10
2019-04-06T03:00:42.704Z,48.60
2019-04-06T03:03:11.345Z,50.70
2019-04-06T03:05:39.967Z,42.20
2019-04-06T03:08:08.589Z,33.95
2019-04-06T03:10:37.239Z,47.27
2019-04-06T03:13:05.859Z,35.80
2019-04-06T03:15:34.494Z,42.93
2019-04-06T03:18:03.133Z,45.93
2019-04-06T03:20:32.303Z,34.70
2019-04-06T03:23:00.911Z,50.83
2019-04-06T03:25:29.569Z,48.43
2019-04-06T03:27:58.323Z,51.28
2019-04-06T03:30:26.995Z,35.80
2019-04-06T03:32:55.717Z,36.55
2019-04-06T03:35:24.338Z,44.60
2019-04-06T03:37:52.972Z,50.92
2019-04-06T03:40:21.621Z,35.03
2019-04-06T03:42:50.251Z,22.52
2019-04-06T03:45:18.876Z,34.65
2019-04-06T03:47:47.525Z,50.58
2019-04-06T03:50:16.131Z,50.30
2019-04-06T03:52:44.751Z,26.85
2019-04-06T03:55:13.458Z,42.85
2019-04-06T03:57:42.080Z,55.33
2019-04-06T04:00:10.677Z,47.43
2019-04-06T04:02:39.312Z,42.00
2019-04-06T04:05:07.931Z,44.07
2019-04-06T04:07:36.536Z,51.95
2019-04-06T04:10:05.902Z,52.65
2019-04-06T04:12:34.510Z,42.53
2019-04-06T04:15:03.113Z,22.60
2019-04-06T04:17:31.720Z,32.43
2019-04-06T04:20:00.328Z,52.57
2019-04-06T04:22:28.862Z,36.20
2019-04-06T04:24:57.395Z,47.53
2019-04-06T04:27:29.841Z,31.93
2019-04-06T04:29:56.240Z,31.27
2019-04-06T04:32:24.878Z,48.47
2019-04-06T04:34:53.490Z,15.67
2019-04-06T04:37:22.174Z,53.37
2019-04-06T04:39:50.887Z,46.42
2019-04-06T04:42:19.596Z,49.38
2019-04-06T04:44:48.411Z,48.52
2019-04-06T04:47:16.990Z,34.58
2019-04-06T04:49:45.589Z,49.00
2019-04-06T04:52:14.137Z,40.83
2019-04-06T04:54:42.722Z,54.67
2019-04-06T04:57:11.309Z,43.53
2019-04-06T04:59:39.929Z,48.10
2019-04-06T05:02:08.583Z,34.95
2019-04-06T05:04:37.178Z,31.47
2019-04-06T05:07:05.981Z,48.70
2019-04-06T05:09:34.577Z,49.03
2019-04-06T05:12:03.253Z,45.85
2019-04-06T05:14:50.433Z,42.93
2019-04-06T05:17:18.965Z,51.17
2019-04-06T05:19:47.490Z,48.58
2019-04-06T05:22:16.106Z,41.73
2019-04-06T05:24:44.976Z,51.40
2019-04-06T05:27:13.617Z,36.53
2019-04-06T05:29:42.233Z,47.08
2019-04-06T05:32:10.861Z,53.08
2019-04-06T05:34:39.485Z,44.38
2019-04-06T05:37:08.218Z,51.73
2019-04-06T05:39:36.965Z,48.13
2019-04-06T05:42:05.630Z,43.30
2019-04-06T05:44:34.321Z,48.17
2019-04-06T05:47:03.033Z,48.63
2019-04-06T05:49:31.718Z,51.83
2019-04-06T05:52:00.327Z,50.07
2019-04-06T05:54:29.664Z,49.30
2019-04-06T05:56:58.193Z,44.67
2019-04-06T05:59:26.866Z,40.80
2019-04-06T06:01:55.561Z,46.95
2019-04-06T06:04:24.169Z,48.17
2019-04-06T06:06:52.841Z,52.53
2019-04-06T06:09:21.393Z,48.30
2019-04-06T06:11:49.989Z,55.12
2019-04-06T06:14:18.785Z,48.92
2019-04-06T06:16:47.405Z,50.73
2019-04-06T06:19:16.053Z,47.23
2019-04-06T06:21:44.613Z,38.90
2019-04-06T06:24:13.207Z,54.25
2019-04-06T06:26:42.825Z,52.83
2019-04-06T06:29:11.445Z,52.60
2019-04-06T06:31:40.054Z,48.58
2019-04-06T06:34:09.342Z,44.75
2019-04-06T06:36:37.914Z,48.90
2019-04-06T06:39:07.294Z,46.35
2019-04-06T06:41:35.893Z,49.63
2019-04-06T06:44:04.705Z,48.87
2019-04-06T06:46:33.369Z,48.77
2019-04-06T06:49:02.313Z,46.45
2019-04-06T06:51:31.057Z,53.00
2019-04-06T06:53:59.629Z,51.08
2019-04-06T06:56:28.229Z,44.07
2019-04-06T06:58:56.856Z,52.53
2019-04-06T07:01:25.495Z,10.15
2019-04-06T07:03:54.105Z,35.13
2019-04-06T07:06:22.784Z,47.93
2019-04-06T07:08:51.365Z,22.27
2019-04-06T07:11:20.014Z,51.90
2019-04-06T07:13:48.853Z,44.40
2019-04-06T07:16:17.677Z,34.30
2019-04-06T07:18:46.353Z,45.10
2019-04-06T07:21:16.959Z,11.85
2019-04-06T07:23:46.285Z,38.80
2019-04-06T07:26:14.811Z,26.57
2019-04-06T07:28:43.599Z,53.58
2019-04-06T07:31:12.221Z,27.47
2019-04-06T07:33:41.069Z,46.80
2019-04-06T07:36:09.605Z,11.60
2019-04-06T07:38:38.501Z,49.63
2019-04-06T07:41:07.809Z,45.03
2019-04-06T07:43:36.417Z,25.90
2019-04-06T07:46:05.059Z,29.17
2019-04-06T07:48:33.624Z,46.58
2019-04-06T07:51:02.147Z,20.80
2019-04-06T07:53:30.844Z,42.17
2019-04-06T07:55:59.443Z,53.87
2019-04-06T07:58:28.089Z,48.20
2019-04-06T08:00:56.613Z,52.75
2019-04-06T08:03:25.217Z,47.40
2019-04-06T08:05:53.828Z,52.88
2019-04-06T08:08:22.929Z,51.97
2019-04-06T08:10:51.537Z,21.07
2019-04-06T08:13:20.126Z,43.75
2019-04-06T08:15:48.705Z,48.47
2019-04-06T08:18:17.261Z,41.95
2019-04-06T08:20:46.032Z,41.93
2019-04-06T08:23:14.707Z,48.15
2019-04-06T08:25:43.293Z,40.43
2019-04-06T08:28:11.840Z,46.50
2019-04-06T08:30:45.986Z,45.28
2019-04-06T08:33:11.169Z,49.00
2019-04-06T08:35:39.790Z,48.43
2019-04-06T08:38:08.384Z,45.48
2019-04-06T08:40:37.044Z,18.73
2019-04-06T08:43:05.604Z,34.33
2019-04-06T08:45:34.151Z,46.40
2019-04-06T08:48:02.722Z,17.42
2019-04-06T08:50:31.365Z,41.40
2019-04-06T08:52:59.916Z,44.60
2019-04-06T08:55:28.489Z,36.50
2019-04-06T08:57:57.691Z,21.37
2019-04-06T09:00:26.285Z,7.13
2019-04-06T09:02:55.008Z,38.35
2019-04-06T09:05:23.689Z,33.97
2019-04-06T09:07:52.384Z,38.80
2019-04-06T09:10:21.012Z,30.43
2019-04-06T09:12:49.706Z,40.50
2019-04-06T09:15:18.229Z,34.73
2019-04-06T09:17:46.748Z,24.32
2019-04-06T09:20:15.449Z,31.70
2019-04-06T09:22:44.077Z,32.97
2019-04-06T09:25:12.676Z,32.13
2019-04-06T09:27:41.437Z,6.33
2019-04-06T09:30:10.432Z,25.63
2019-04-06T09:32:39.045Z,30.57
2019-04-06T09:35:09.177Z,28.87
2019-04-06T09:37:37.817Z,5.57
2019-04-06T09:40:07.222Z,12.57
2019-04-06T09:42:35.851Z,27.47
2019-04-06T09:45:24.065Z,27.90
2019-04-06T09:48:17.841Z,28.17
2019-04-06T09:51:04.361Z,18.92
2019-04-06T09:54:06.415Z,10.33
2019-04-06T09:56:42.757Z,35.90
2019-04-06T09:59:35.866Z,21.85
2019-04-06T10:02:20.729Z,26.35
2019-04-06T10:05:07.395Z,6.47
2019-04-06T10:07:51.046Z,31.10
2019-04-06T10:10:54.182Z,27.67
2019-04-06T10:13:40.510Z,27.77
2019-04-06T10:16:34.345Z,22.90
2019-04-06T10:19:21.081Z,15.48
2019-04-06T10:22:20.957Z,25.07
2019-04-06T10:24:58.096Z,26.17
2019-04-06T10:28:01.045Z,27.05
2019-04-06T10:30:43.054Z,9.43
2019-04-06T10:33:32.847Z,25.45
2019-04-06T10:36:26.508Z,28.23
2019-04-06T10:39:12.639Z,25.62
2019-04-06T10:42:15.872Z,10.90
2019-04-06T10:45:02.606Z,24.20
2019-04-06T10:47:40.387Z,17.55
2019-04-06T10:50:26.147Z,13.55
2019-04-06T10:53:16.881Z,11.55
2019-04-06T10:56:00.018Z,17.25
2019-04-06T10:58:36.808Z,20.92
2019-04-06T11:01:34.345Z,19.20
2019-04-06T11:04:13.986Z,19.27
2019-04-06T11:06:48.725Z,10.97
2019-04-06T11:09:40.337Z,6.75
2019-04-06T11:12:27.668Z,17.90
2019-04-06T11:15:15.330Z,19.23
2019-04-06T11:18:03.083Z,18.67
2019-04-06T11:20:39.732Z,13.77
2019-04-06T11:23:31.144Z,19.27
2019-04-06T11:26:18.821Z,6.67
2019-04-06T11:28:59.942Z,14.80
2019-04-06T11:31:41.248Z,16.77
2019-04-06T11:34:42.165Z,18.80
2019-04-06T11:37:28.903Z,18.37
2019-04-06T11:40:11.211Z,9.53
2019-04-06T11:43:01.997Z,12.25
2019-04-06T11:45:49.713Z,9.53
2019-04-06T11:48:47.319Z,14.57
2019-04-06T11:51:38.053Z,13.95
2019-04-06T11:54:28.558Z,5.80
2019-04-06T11:57:23.949Z,4.23
2019-04-06T12:00:26.401Z,13.37
2019-04-06T12:03:16.701Z,3.85
2019-04-06T12:06:01.781Z,9.93
2019-04-06T12:08:50.402Z,13.93
2019-04-06T12:11:32.205Z,13.30
2019-04-06T12:14:29.581Z,9.03
2019-04-06T12:17:05.576Z,6.23
2019-04-06T12:19:45.457Z,15.60
2019-04-06T12:22:31.429Z,8.40
2019-04-06T12:25:19.149Z,12.40
2019-04-06T12:28:06.925Z,17.37
2019-04-06T12:30:53.538Z,15.35
2019-04-06T12:33:41.357Z,14.17
2019-04-06T12:36:21.429Z,12.98
2019-04-06T12:39:03.050Z,13.93
2019-04-06T12:42:00.748Z,6.83
2019-04-06T12:44:47.509Z,2.17
2019-04-06T12:47:35.064Z,11.83
2019-04-06T12:50:21.749Z,16.50
2019-04-06T12:52:58.463Z,15.13
2019-04-06T12:55:45.054Z,13.03
2019-04-06T12:58:38.825Z,13.75
2019-04-06T13:01:35.948Z,6.42
2019-04-06T13:04:22.762Z,13.63
2019-04-06T13:07:18.871Z,6.80
2019-04-06T13:10:12.890Z,19.17
2019-04-06T13:12:54.167Z,11.33
2019-04-06T13:15:42.144Z,13.80
2019-04-06T13:18:19.639Z,7.87
2019-04-06T13:21:02.341Z,15.20
2019-04-06T13:23:42.951Z,10.27
2019-04-06T13:26:29.653Z,14.35
2019-04-06T13:29:24.598Z,13.35
2019-04-06T13:32:22.571Z,18.40
2019-04-06T13:35:04.302Z,15.30
2019-04-06T13:37:50.581Z,10.67
2019-04-06T13:40:50.489Z,17.50
2019-04-06T13:43:36.922Z,15.60
2019-04-06T13:46:31.309Z,19.60
2019-04-06T13:49:28.286Z,14.50
2019-04-06T13:52:28.082Z,14.38
2019-04-06T13:55:13.440Z,14.55
2019-04-06T13:57:50.849Z,15.45
2019-04-06T14:00:37.610Z,10.95
2019-04-06T14:03:19.199Z,11.73
2019-04-06T14:06:16.092Z,16.57
2019-04-06T14:09:04.121Z,14.68
2019-04-06T14:11:43.136Z,15.32
2019-04-06T14:14:31.433Z,13.93
2019-04-06T14:17:19.065Z,16.73
2019-04-06T14:20:09.801Z,15.00
2019-04-06T14:23:03.598Z,13.43
2019-04-06T14:25:50.270Z,14.70
2019-04-06T14:28:36.601Z,6.22
2019-04-06T14:31:30.486Z,11.63
2019-04-06T14:34:25.995Z,15.90
2019-04-06T14:37:14.034Z,10.93
2019-04-06T14:40:01.806Z,2.47
2019-04-06T14:42:37.507Z,2.90
2019-04-06T14:45:21.085Z,14.63
2019-04-06T14:48:18.319Z,13.08
2019-04-06T14:51:06.049Z,14.13
2019-04-06T14:53:51.537Z,18.55
2019-04-06T14:56:51.361Z,10.25
2019-04-06T14:59:30.573Z,15.72
2019-04-06T15:02:17.221Z,15.67
2019-04-06T15:05:07.881Z,14.00
2019-04-06T15:07:57.040Z,13.47
2019-04-06T15:10:50.006Z,16.53
2019-04-06T15:13:39.767Z,13.10
2019-04-06T15:16:14.752Z,13.37
2019-04-06T15:19:21.641Z,14.65
2019-04-06T15:22:08.041Z,12.87
2019-04-06T15:24:45.060Z,17.00
2019-04-06T15:27:33.097Z,14.73
2019-04-06T15:30:19.383Z,18.63
2019-04-06T15:33:01.114Z,15.10
2019-04-06T15:35:40.058Z,16.27
2019-04-06T15:38:33.742Z,15.25
2019-04-06T15:41:20.557Z,15.03
2019-04-06T15:44:17.428Z,15.88
2019-04-06T15:47:05.805Z,13.30
2019-04-06T15:49:46.176Z,11.83
2019-04-06T15:52:31.249Z,16.07
2019-04-06T15:55:21.284Z,15.35
2019-04-06T15:57:57.065Z,14.43
2019-04-06T16:00:50.744Z,13.77
2019-04-06T16:03:38.267Z,11.93
2019-04-06T16:06:13.218Z,14.87
2019-04-06T16:09:15.955Z,12.87
2019-04-06T16:12:03.432Z,11.83
2019-04-06T16:14:57.280Z,16.00
2019-04-06T16:17:33.960Z,15.08
2019-04-06T16:20:37.078Z,12.63
2019-04-06T16:23:28.573Z,16.87
2019-04-06T16:26:19.069Z,14.57
2019-04-06T16:29:06.865Z,7.83
2019-04-06T16:31:59.714Z,12.18
2019-04-06T16:34:34.946Z,12.53
2019-04-06T16:37:28.881Z,14.53
2019-04-06T16:40:07.921Z,14.25
2019-04-06T16:42:54.302Z,13.63
2019-04-06T16:45:40.763Z,12.30
2019-04-06T16:48:17.354Z,15.23
2019-04-06T16:51:10.325Z,13.58
2019-04-06T16:53:56.780Z,16.90
2019-04-06T16:56:47.999Z,11.85
2019-04-06T16:59:36.423Z,17.37
2019-04-06T17:02:25.614Z,15.00
2019-04-06T17:05:13.279Z,15.63
2019-04-06T17:07:51.383Z,12.57
2019-04-06T17:10:42.193Z,14.93
2019-04-06T17:13:33.329Z,16.27
2019-04-06T17:16:30.259Z,16.30
2019-04-06T17:19:18.017Z,16.67
2019-04-06T17:21:52.186Z,18.20
2019-04-06T17:24:46.053Z,16.87
2019-04-06T17:27:32.705Z,17.52
2019-04-06T17:30:15.423Z,17.73
2019-04-06T17:33:03.157Z,18.30
2019-04-06T17:35:49.737Z,20.17
2019-04-06T17:38:40.664Z,17.62
2019-04-06T17:41:28.296Z,18.70
2019-04-06T17:44:28.885Z,21.70
2019-04-06T17:47:05.609Z,18.23
2019-04-06T17:49:52.181Z,21.97
2019-04-06T17:52:40.182Z,21.97
2019-04-06T17:55:27.011Z,20.67
2019-04-06T17:58:04.012Z,20.00
2019-04-06T18:00:51.809Z,19.75
2019-04-06T18:03:45.210Z,19.70
2019-04-06T18:06:39.713Z,21.42
2019-04-06T18:09:46.035Z,18.73
2019-04-06T18:12:23.481Z,18.70
2019-04-06T18:14:52.353Z,20.27
2019-04-06T18:17:21.045Z,22.02
2019-04-06T18:19:49.651Z,23.67
2019-04-06T18:22:18.368Z,20.90
2019-04-06T18:24:46.953Z,22.60
2019-04-06T18:27:15.501Z,19.60
2019-04-06T18:29:44.342Z,23.70
2019-04-06T18:32:31.434Z,24.43
2019-04-06T18:35:00.025Z,22.60
2019-04-06T18:37:48.329Z,21.10
2019-04-06T18:40:24.910Z,22.80
2019-04-06T18:42:54.404Z,21.23
2019-04-06T18:45:24.214Z,26.15
2019-04-06T18:47:53.116Z,22.22
2019-04-06T18:50:28.521Z,23.50
2019-04-06T18:52:52.046Z,22.93
2019-04-06T18:55:20.693Z,21.30
2019-04-06T18:57:49.701Z,22.67
2019-04-06T19:00:18.939Z,23.42
2019-04-06T19:02:47.912Z,24.12
2019-04-06T19:05:16.602Z,22.93
2019-04-06T19:07:45.305Z,21.97
2019-04-06T19:10:14.009Z,23.63
2019-04-06T19:12:43.613Z,24.52
2019-04-06T19:15:12.557Z,25.27
2019-04-06T19:17:41.157Z,25.87
2019-04-06T19:20:10.455Z,25.43
2019-04-06T19:22:39.255Z,24.20
2019-04-06T19:25:08.060Z,26.40
2019-04-06T19:27:36.657Z,28.43
2019-04-06T19:30:06.629Z,28.38
2019-04-06T19:32:35.479Z,24.65
2019-04-06T19:35:04.808Z,28.95
2019-04-06T19:37:33.589Z,24.90
2019-04-06T19:40:02.460Z,28.07
2019-04-06T19:42:31.249Z,28.60
2019-04-06T19:45:00.299Z,25.35
2019-04-06T19:47:28.903Z,27.02
2019-04-06T19:49:57.429Z,28.13
2019-04-06T19:52:27.936Z,24.85
2019-04-06T19:54:57.045Z,26.17
2019-04-06T19:57:26.029Z,27.40
2019-04-06T19:59:54.980Z,25.60
2019-04-06T20:02:23.673Z,25.82
2019-04-06T20:04:53.136Z,25.80
2019-04-06T20:07:21.827Z,29.20
2019-04-06T20:09:50.417Z,26.63
2019-04-06T20:12:19.958Z,27.25
2019-04-06T20:14:48.625Z,26.13
2019-04-06T20:17:17.632Z,27.50
2019-04-06T20:19:46.236Z,33.63
2019-04-06T20:22:14.914Z,28.63
2019-04-06T20:24:43.477Z,25.27
2019-04-06T20:27:12.270Z,28.83
2019-04-06T20:29:40.871Z,29.05
2019-04-06T20:32:09.464Z,29.67
2019-04-06T20:34:38.938Z,26.77
2019-04-06T20:37:07.617Z,28.47
2019-04-06T20:39:36.277Z,29.40
2019-04-06T20:42:05.246Z,34.78
2019-04-06T20:44:33.865Z,28.02
2019-04-06T20:47:02.409Z,28.27
2019-04-06T20:49:30.929Z,30.08
2019-04-06T20:51:59.669Z,32.42
2019-04-06T20:54:29.731Z,30.60
2019-04-06T20:56:59.162Z,28.52
2019-04-06T20:59:28.313Z,32.20
2019-04-06T21:01:56.873Z,29.17
2019-04-06T21:04:26.422Z,28.80
2019-04-06T21:06:55.177Z,31.70
2019-04-06T21:09:24.106Z,33.38
2019-04-06T21:11:52.711Z,29.77
2019-04-06T21:14:21.561Z,30.68
2019-04-06T21:16:50.232Z,30.30
2019-04-06T21:19:19.330Z,32.75
2019-04-06T21:21:48.173Z,34.05
2019-04-06T21:24:16.904Z,32.90
2019-04-06T21:26:45.551Z,34.00
2019-04-06T21:29:14.188Z,34.40
2019-04-06T21:31:42.907Z,34.13
2019-04-06T21:34:14.360Z,35.73
2019-04-06T21:36:41.821Z,34.48
2019-04-06T21:39:10.910Z,36.55
2019-04-06T21:41:39.624Z,33.05
2019-04-06T21:44:08.377Z,38.00
2019-04-06T21:46:37.048Z,36.98
2019-04-06T21:49:06.139Z,36.95
2019-04-06T21:51:35.294Z,37.87
2019-04-06T21:54:04.551Z,37.77
2019-04-06T21:56:33.164Z,38.17
2019-04-06T21:59:01.779Z,38.87
2019-04-06T22:01:31.900Z,38.15
2019-04-06T22:04:00.984Z,43.43
2019-04-06T22:06:30.487Z,39.85
2019-04-06T22:08:59.219Z,36.87
2019-04-06T22:11:27.874Z,40.20
2019-04-06T22:13:56.674Z,37.78
2019-04-06T22:16:25.636Z,34.20
2019-04-06T22:18:54.292Z,39.15
2019-04-06T22:21:22.882Z,37.65
2019-04-06T22:23:51.444Z,43.17
2019-04-06T22:26:20.184Z,41.73
2019-04-06T22:28:49.184Z,42.53
2019-04-06T22:31:17.849Z,46.40
2019-04-06T22:33:46.444Z,44.13
2019-04-06T22:36:15.127Z,42.20
2019-04-06T22:38:43.725Z,43.90
2019-04-06T22:41:12.748Z,44.97
2019-04-06T22:43:41.389Z,44.00
2019-04-06T22:46:12.234Z,46.67
2019-04-06T22:48:40.384Z,48.58
2019-04-06T22:51:09.097Z,49.08
2019-04-06T22:53:37.623Z,37.47
2019-04-06T22:56:06.705Z,46.30
2019-04-06T22:58:35.749Z,46.30
2019-04-06T23:01:10.650Z,45.43
2019-04-06T23:04:04.774Z,49.05
2019-04-06T23:06:41.512Z,50.52
2019-04-06T23:09:10.243Z,48.75
2019-04-06T23:11:38.856Z,47.80
2019-04-06T23:14:07.626Z,47.00
2019-04-06T23:16:36.871Z,48.68
2019-04-06T23:19:05.498Z,46.58
2019-04-06T23:21:34.089Z,38.15
2019-04-06T23:24:03.807Z,48.13
2019-04-06T23:26:32.945Z,51.47
2019-04-06T23:29:02.221Z,51.98
2019-04-06T23:31:30.982Z,56.18
2019-04-06T23:34:01.129Z,50.83
2019-04-06T23:36:30.409Z,46.63
2019-04-06T23:38:59.041Z,52.33
2019-04-06T23:41:27.705Z,52.90
2019-04-06T23:43:56.367Z,51.40
2019-04-06T23:46:24.983Z,45.15
2019-04-06T23:48:54.279Z,52.90
2019-04-06T23:51:23.393Z,52.63
2019-04-06T23:53:52.627Z,57.87
2019-04-06T23:56:21.933Z,53.80
2019-04-06T23:58:50.534Z,49.03
